Time;durP1;ratioP1;P1;durP2;ratioP2;P2;SDS_P1;SDS_P2;PMS_P1;PMS_P2;Temp;Humidity;BMP_temperature;BMP_pressure;BME280_temperature;BME280_humidity;BME280_pressure;Samples;Min_cycle;Max_cycle;Signal;HPM_P1;HPM_P2
2022/12/09 00:01:54;;;;;;;;;;;;;;;9.49;68.60;100150.94;4992769;28;19922;-77
2022/12/09 00:04:38;;;;;;;;;;;;;;;9.51;68.69;100148.66;4993028;28;19918;-77
2022/12/09 00:07:22;;;;;;;;;;;;;;;9.50;68.19;100151.72;4992137;28;19918;-77
2022/12/09 00:10:07;;;;;;;;;;;;;;;9.41;67.74;100154.44;4978702;28;19918;-77
2022/12/09 00:12:55;;;;;;;;;;;;;;;9.37;67.41;100148.06;4978603;28;19926;-75
2022/12/09 00:15:42;;;;;;;;;;;;;;;9.39;67.05;100154.78;4982255;28;19922;-77
2022/12/09 00:18:27;;;;;;;;;;;;;;;9.40;66.57;100147.41;4992770;28;19918;-76
2022/12/09 00:21:13;;;;;;;;;;;;;;;9.28;67.18;100150.78;4992574;28;19926;-75
2022/12/09 00:23:59;;;;;;;;;;;;;;;9.26;67.05;100146.78;4992764;28;20302;-78
2022/12/09 00:26:43;;;;;;;;;;;;;;;9.26;67.30;100142.16;4992738;28;19922;-77
2022/12/09 00:29:28;;;;;;;;;;;;;;;9.21;67.75;100147.75;4959367;28;19919;-77
2022/12/09 00:32:12;;;;;;;;;;;;;;;9.25;67.56;100148.69;4962798;28;19918;-77
2022/12/09 00:34:57;;;;;;;;;;;;;;;9.24;67.08;100138.97;4961545;28;19918;-79
2022/12/09 00:37:41;;;;;;;;;;;;;;;9.27;66.99;100145.66;4983138;28;19917;-79
2022/12/09 00:40:26;;;;;;;;;;;;;;;9.26;67.61;100144.06;4982662;28;19922;-77
2022/12/09 00:43:10;;;;;;;;;;;;;;;9.24;67.35;100144.41;4992353;28;19918;-76
2022/12/09 00:45:55;;;;;;;;;;;;;;;9.30;67.21;100143.09;4979149;28;20321;-77
2022/12/09 00:48:39;;;;;;;;;;;;;;;9.34;66.51;100144.09;4984565;28;19918;-76
2022/12/09 00:51:24;;;;;;;;;;;;;;;9.29;66.31;100146.97;4996228;28;19917;-78
2022/12/09 00:54:09;;;;;;;;;;;;;;;9.30;65.63;100143.09;4983041;28;19918;-78
2022/12/09 00:56:53;;;;;;;;;;;;;;;9.12;63.69;100136.09;4995982;28;19921;-78
2022/12/09 00:59:38;;;;;;;;;;;;;;;9.21;64.27;100139.59;4981988;28;20402;-76
2022/12/09 01:02:22;;;;;;;;;;;;;;;9.25;63.75;100135.13;4987408;28;20386;-78
2022/12/09 01:05:07;;;;;;;;;;;;;;;9.25;64.08;100135.13;4995721;28;20310;-79
2022/12/09 01:07:51;;;;;;;;;;;;;;;9.15;64.20;100137.38;4984585;28;19917;-78
2022/12/09 01:10:37;;;;;;;;;;;;;;;9.22;63.93;100138.50;4982778;28;19918;-79
2022/12/09 01:13:21;;;;;;;;;;;;;;;9.13;64.26;100140.41;4981139;28;19918;-78
2022/12/09 01:16:26;;;;;;;;;;;;;;;9.15;63.42;100134.66;4984952;28;20286;-76
2022/12/09 01:19:13;;;;;;;;;;;;;;;9.19;62.49;100131.00;4980453;28;19918;-77
2022/12/09 01:21:57;;;;;;;;;;;;;;;9.21;62.88;100131.47;4986038;28;19922;-78
2022/12/09 01:24:42;;;;;;;;;;;;;;;9.27;63.14;100123.97;4995030;28;19918;-76
2022/12/09 01:27:30;;;;;;;;;;;;;;;9.21;62.88;100119.81;4975678;28;19918;-75
2022/12/09 01:30:14;;;;;;;;;;;;;;;9.12;63.44;100117.13;4979585;28;19918;-75
2022/12/09 01:32:58;;;;;;;;;;;;;;;9.03;63.37;100116.31;4986979;28;19918;-75
2022/12/09 01:35:43;;;;;;;;;;;;;;;9.07;63.33;100111.06;4987101;28;19918;-77
2022/12/09 01:38:28;;;;;;;;;;;;;;;9.17;63.58;100108.81;4995401;28;19918;-75
2022/12/09 01:41:13;;;;;;;;;;;;;;;9.18;63.60;100102.28;4994651;28;19922;-77
2022/12/09 01:44:09;;;;;;;;;;;;;;;9.20;64.30;100101.94;4994985;28;19934;-76
2022/12/09 01:46:55;;;;;;;;;;;;;;;9.21;64.19;100104.34;4994960;28;19921;-76
2022/12/09 01:49:41;;;;;;;;;;;;;;;9.14;64.49;100098.63;4994483;28;19922;-76
2022/12/09 01:52:27;;;;;;;;;;;;;;;9.09;64.62;100090.66;4981673;28;19918;-76
2022/12/09 01:55:12;;;;;;;;;;;;;;;9.21;64.88;100095.41;4985683;28;19917;-78
2022/12/09 01:57:57;;;;;;;;;;;;;;;9.20;64.52;100083.75;4983672;28;19918;-76
2022/12/09 02:00:42;;;;;;;;;;;;;;;8.97;65.19;100079.63;4981643;28;19922;-77
2022/12/09 02:03:27;;;;;;;;;;;;;;;8.89;65.29;100069.56;4979906;28;19921;-77
2022/12/09 02:06:11;;;;;;;;;;;;;;;8.74;64.94;100060.00;4994567;28;20371;-77
2022/12/09 02:08:57;;;;;;;;;;;;;;;8.81;65.02;100054.13;4994513;28;19922;-78
2022/12/09 02:11:56;;;;;;;;;;;;;;;8.69;64.80;100060.16;4979502;28;19918;-77
2022/12/09 02:14:47;;;;;;;;;;;;;;;8.69;65.82;100053.94;4986242;28;19918;-78
2022/12/09 02:17:38;;;;;;;;;;;;;;;8.82;65.60;100055.72;4981418;28;19917;-77
2022/12/09 02:20:28;;;;;;;;;;;;;;;8.90;64.55;100055.72;4994302;28;19922;-75
2022/12/09 02:23:19;;;;;;;;;;;;;;;8.97;64.87;100045.19;4990536;28;19917;-77
2022/12/09 02:26:11;;;;;;;;;;;;;;;8.99;65.25;100034.78;4990966;28;19918;-77
2022/12/09 02:29:08;;;;;;;;;;;;;;;9.13;65.10;100034.63;4996063;28;19921;-77
2022/12/09 02:32:23;;;;;;;;;;;;;;;9.02;64.15;100028.75;4967779;28;19917;-78
2022/12/09 02:35:13;;;;;;;;;;;;;;;8.92;64.82;100028.28;4993738;28;19917;-77
2022/12/09 02:38:04;;;;;;;;;;;;;;;8.85;65.20;100017.91;4982217;28;20298;-76
2022/12/09 02:40:51;;;;;;;;;;;;;;;8.74;65.28;100010.41;4993960;28;19918;-76
2022/12/09 02:43:38;;;;;;;;;;;;;;;8.82;65.70;100013.16;4972048;28;19918;-78
2022/12/09 02:46:23;;;;;;;;;;;;;;;8.78;65.67;100009.50;4974225;28;19918;-75
2022/12/09 02:49:08;;;;;;;;;;;;;;;8.67;65.09;99997.38;4974102;28;19926;-75
2022/12/09 02:51:52;;;;;;;;;;;;;;;8.80;65.85;99998.31;4967737;28;19917;-76
2022/12/09 02:54:38;;;;;;;;;;;;;;;8.72;66.42;99991.78;4981527;28;19918;-76
2022/12/09 02:57:25;;;;;;;;;;;;;;;8.79;66.06;99991.28;4980313;28;19917;-76
2022/12/09 03:00:12;;;;;;;;;;;;;;;8.98;65.41;99987.13;4993552;28;19922;-76
2022/12/09 03:02:59;;;;;;;;;;;;;;;8.68;66.46;99977.28;4980635;28;19918;-74
2022/12/09 03:05:44;;;;;;;;;;;;;;;8.86;66.33;99976.13;4993448;28;19917;-75
2022/12/09 03:08:51;;;;;;;;;;;;;;;9.05;66.08;99978.47;4993394;28;19918;-75
2022/12/09 03:11:36;;;;;;;;;;;;;;;8.76;65.28;99970.25;4992996;28;19917;-77
2022/12/09 03:14:36;;;;;;;;;;;;;;;8.99;66.29;99963.50;4978429;28;20399;-77
2022/12/09 03:17:27;;;;;;;;;;;;;;;8.96;65.98;99958.72;4981533;28;20303;-78
2022/12/09 03:20:15;;;;;;;;;;;;;;;8.90;65.43;99946.47;4993167;28;20467;-76
2022/12/09 03:23:02;;;;;;;;;;;;;;;8.84;65.93;99945.81;4982883;28;20406;-74
2022/12/09 03:25:49;;;;;;;;;;;;;;;8.61;67.35;99930.91;4976646;28;19918;-75
2022/12/09 03:28:36;;;;;;;;;;;;;;;8.63;67.49;99933.28;4992503;28;20314;-76
2022/12/09 03:31:21;;;;;;;;;;;;;;;8.88;66.37;99930.53;4975699;28;19944;-78
2022/12/09 03:34:08;;;;;;;;;;;;;;;8.71;66.26;99921.63;4969795;28;19917;-75
2022/12/09 03:36:53;;;;;;;;;;;;;;;8.71;67.09;99924.34;4979849;28;19921;-75
2022/12/09 03:39:39;;;;;;;;;;;;;;;8.74;66.96;99932.63;4993232;28;19918;-77
2022/12/09 03:42:30;;;;;;;;;;;;;;;8.73;67.03;99927.53;4981182;28;20387;-75
2022/12/09 03:45:15;;;;;;;;;;;;;;;8.73;67.03;99922.91;4992490;28;20379;-76
2022/12/09 03:48:00;;;;;;;;;;;;;;;8.77;66.93;99913.00;4983077;28;19918;-81
2022/12/09 03:50:59;;;;;;;;;;;;;;;8.69;67.10;99899.47;4985576;28;19918;-81
2022/12/09 03:54:02;;;;;;;;;;;;;;;8.68;67.25;99892.47;4985699;28;19918;-81
2022/12/09 03:56:50;;;;;;;;;;;;;;;8.64;66.90;99895.00;4980964;28;19918;-81
2022/12/09 03:59:36;;;;;;;;;;;;;;;8.71;66.91;99886.41;4980756;28;20370;-81
2022/12/09 04:02:21;;;;;;;;;;;;;;;8.74;66.76;99875.69;4993606;28;19926;-81
2022/12/09 04:05:05;;;;;;;;;;;;;;;8.70;66.61;99866.63;4985642;28;19937;-82
2022/12/09 04:07:50;;;;;;;;;;;;;;;8.71;67.76;99883.69;4974461;28;20302;-81
2022/12/09 04:10:35;;;;;;;;;;;;;;;8.81;67.22;99883.34;4972734;28;19926;-80
2022/12/09 04:13:20;;;;;;;;;;;;;;;8.76;67.44;99884.31;4976438;28;19922;-80
2022/12/09 04:16:04;;;;;;;;;;;;;;;8.77;67.38;99875.06;4973996;28;20387;-80
2022/12/09 04:18:49;;;;;;;;;;;;;;;8.68;67.66;99863.47;4982082;28;19918;-80
2022/12/09 04:21:34;;;;;;;;;;;;;;;8.68;67.92;99849.09;4989621;28;19922;-81
2022/12/09 04:24:18;;;;;;;;;;;;;;;8.47;67.26;99849.81;4984664;28;19917;-80
2022/12/09 04:27:02;;;;;;;;;;;;;;;8.74;67.86;99848.59;4997159;28;19917;-80
2022/12/09 04:29:47;;;;;;;;;;;;;;;8.87;67.48;99857.66;4983407;28;19918;-80
2022/12/09 04:32:32;;;;;;;;;;;;;;;8.77;67.29;99841.75;4988759;28;19918;-81
2022/12/09 04:35:16;;;;;;;;;;;;;;;8.58;67.93;99848.31;4997350;28;19918;-80
2022/12/09 04:38:01;;;;;;;;;;;;;;;8.86;67.34;99846.00;4986594;28;19917;-80
2022/12/09 04:40:45;;;;;;;;;;;;;;;8.84;67.29;99842.00;4983851;28;19922;-80
2022/12/09 04:43:30;;;;;;;;;;;;;;;8.76;67.60;99840.94;4995604;28;19921;-82
2022/12/09 04:46:15;;;;;;;;;;;;;;;8.70;67.56;99830.59;5016606;28;19918;-81
2022/12/09 04:48:59;;;;;;;;;;;;;;;8.70;68.13;99827.88;4996142;28;19921;-80
2022/12/09 04:51:44;;;;;;;;;;;;;;;8.89;67.60;99828.28;4996282;28;19922;-80
2022/12/09 04:54:28;;;;;;;;;;;;;;;8.85;67.44;99827.34;4996258;28;19918;-80
2022/12/09 04:57:13;;;;;;;;;;;;;;;8.80;67.59;99819.41;4996628;28;19917;-81
2022/12/09 04:59:57;;;;;;;;;;;;;;;8.90;67.96;99827.16;4996370;28;19917;-82
2022/12/09 05:02:41;;;;;;;;;;;;;;;8.87;68.13;99825.13;4972614;28;20298;-80
2022/12/09 05:05:26;;;;;;;;;;;;;;;8.88;67.85;99827.50;4977917;28;19918;-82
2022/12/09 05:08:10;;;;;;;;;;;;;;;8.76;68.14;99826.59;4964440;28;19918;-80
2022/12/09 05:10:55;;;;;;;;;;;;;;;8.75;68.48;99833.13;4986286;28;21590;-80
2022/12/09 05:13:39;;;;;;;;;;;;;;;8.80;68.42;99816.69;4988846;28;19918;-79
2022/12/09 05:16:24;;;;;;;;;;;;;;;8.90;67.77;99806.28;4996043;28;19917;-82
2022/12/09 05:19:08;;;;;;;;;;;;;;;8.83;68.24;99813.34;4984029;28;19917;-80
2022/12/09 05:21:52;;;;;;;;;;;;;;;8.84;68.42;99820.31;4984878;28;19922;-80
2022/12/09 05:24:37;;;;;;;;;;;;;;;8.75;68.68;99811.44;4976280;28;19918;-80
2022/12/09 05:27:21;;;;;;;;;;;;;;;8.79;68.41;99809.66;4985604;28;19918;-81
2022/12/09 05:30:06;;;;;;;;;;;;;;;8.71;68.48;99805.09;4982814;28;19917;-79
2022/12/09 05:32:50;;;;;;;;;;;;;;;8.70;68.88;99804.28;4986648;28;19921;-81
2022/12/09 05:35:35;;;;;;;;;;;;;;;8.68;68.88;99803.03;4995345;28;19926;-81
2022/12/09 05:38:20;;;;;;;;;;;;;;;8.71;68.94;99805.09;4967035;28;20399;-81
2022/12/09 05:41:05;;;;;;;;;;;;;;;8.72;68.63;99795.84;4985850;28;19922;-81
2022/12/09 05:43:50;;;;;;;;;;;;;;;8.72;68.60;99787.72;4995064;28;20414;-81
2022/12/09 05:46:35;;;;;;;;;;;;;;;8.82;68.13;99790.06;4994470;28;19935;-83
2022/12/09 05:49:19;;;;;;;;;;;;;;;8.72;68.50;99790.41;4990117;28;20302;-82
2022/12/09 05:52:04;;;;;;;;;;;;;;;8.66;68.63;99778.97;4986698;28;20302;-82
2022/12/09 05:54:49;;;;;;;;;;;;;;;8.71;68.85;99777.97;4995309;28;20646;-81
2022/12/09 05:57:33;;;;;;;;;;;;;;;8.69;68.86;99781.00;4967794;28;19918;-81
2022/12/09 06:00:18;;;;;;;;;;;;;;;8.58;69.15;99775.16;4967399;28;19944;-82
2022/12/09 06:03:03;;;;;;;;;;;;;;;8.63;69.10;99776.13;4994098;28;19922;-81
2022/12/09 06:05:47;;;;;;;;;;;;;;;8.56;69.39;99776.63;4984001;28;19917;-81
2022/12/09 06:08:32;;;;;;;;;;;;;;;8.58;69.89;99775.16;4984874;28;20395;-81
2022/12/09 06:11:17;;;;;;;;;;;;;;;8.59;69.60;99759.69;4985804;28;19918;-80
2022/12/09 06:14:02;;;;;;;;;;;;;;;8.64;69.65;99756.81;4973772;28;19918;-81
2022/12/09 06:16:46;;;;;;;;;;;;;;;8.66;69.70;99759.19;4985374;28;19921;-81
2022/12/09 06:19:31;;;;;;;;;;;;;;;8.65;69.79;99755.69;4977613;28;19922;-79
2022/12/09 06:22:15;;;;;;;;;;;;;;;8.69;69.28;99751.19;4977101;28;20302;-79
2022/12/09 06:24:59;;;;;;;;;;;;;;;8.72;69.58;99739.72;4972095;28;19921;-80
2022/12/09 06:27:44;;;;;;;;;;;;;;;8.71;68.96;99726.50;4980798;28;20548;-79
2022/12/09 06:30:28;;;;;;;;;;;;;;;8.61;69.18;99719.53;4974973;28;19917;-80
2022/12/09 06:33:13;;;;;;;;;;;;;;;8.54;69.51;99714.59;4965376;28;20382;-80
2022/12/09 06:36:01;;;;;;;14.55;10.05;;;;;;;8.73;68.70;99703.38;4988144;28;20405;-77
2022/12/09 06:38:46;;;;;;;;;;;;;;;8.87;68.69;99708.56;4979077;28;19925;-77
2022/12/09 06:41:31;;;;;;;;;;;;;;;8.84;68.52;99711.91;4978020;28;19930;-75
2022/12/09 06:44:15;;;;;;;;;;;;;;;8.67;69.09;99718.22;4981908;28;19918;-76
2022/12/09 06:47:00;;;;;;;;;;;;;;;8.52;69.67;99716.88;4975368;28;19918;-77
2022/12/09 06:49:44;;;;;;;;;;;;;;;8.49;69.81;99719.41;4973820;28;19918;-76
2022/12/09 06:52:29;;;;;;;;;;;;;;;8.39;70.35;99715.16;4990130;28;19918;-76
2022/12/09 06:55:15;;;;;;;;;;;;;;;8.41;70.35;99712.94;4975100;28;20454;-75
2022/12/09 06:57:59;;;;;;;;;;;;;;;8.25;71.10;99711.03;4988394;28;19918;-75
2022/12/09 07:00:44;;;;;;;;;;;;;;;8.35;71.03;99711.50;4981346;28;19918;-77
2022/12/09 07:03:28;;;;;;;;;;;;;;;8.29;71.33;99707.34;4967136;28;19918;-76
2022/12/09 07:06:33;;;;;;;;;;;;;;;8.29;70.92;99701.94;4982605;28;19926;-77
2022/12/09 07:09:19;;;;;;;;;;;;;;;8.29;71.14;99711.97;4987504;28;19930;-76
2022/12/09 07:12:04;;;;;;;;;;;;;;;8.25;71.80;99714.53;4967372;28;19918;-77
2022/12/09 07:14:49;;;;;;;;;;;;;;;8.23;71.61;99714.06;5002521;28;20314;-77
2022/12/09 07:17:33;;;;;;;;;;;;;;;8.21;71.52;99720.94;5000530;28;19917;-76
2022/12/09 07:20:18;;;;;;;;;;;;;;;8.23;71.54;99719.47;4985672;28;19922;-77
2022/12/09 07:23:02;;;;;;;;;;;;;;;8.26;71.87;99718.84;4979796;28;19921;-75
2022/12/09 07:25:56;;;;;;;;;;;;;;;8.19;71.93;99718.53;4987102;28;19917;-78
2022/12/09 07:28:41;;;;;;;;;;;;;;;8.14;73.25;99716.81;4980621;28;19926;-80
2022/12/09 07:31:26;;;;;;;;;;;;;;;8.11;72.82;99712.06;4970648;28;19918;-80
2022/12/09 07:34:11;;;;;;;;;;;;;;;8.24;72.29;99721.06;4990417;28;19922;-76
2022/12/09 07:36:56;;;;;;;;;;;;;;;8.39;72.14;99720.56;4972818;28;20335;-77
2022/12/09 07:39:40;;;;;;;;;;;;;;;8.48;71.40;99721.31;4987870;28;19917;-76
2022/12/09 07:42:24;;;;;;;;;;;;;;;8.88;73.34;99710.16;4979473;28;20395;-79
2022/12/09 07:45:11;;;;;;;;;;;;;;;8.89;70.13;99698.16;4978928;28;19925;-76
2022/12/09 07:47:55;;;;;;;;;;;;;;;9.07;69.77;99694.22;4982411;28;19918;-77
2022/12/09 07:50:40;;;;;;;;;;;;;;;9.12;69.00;99699.44;4971551;28;19918;-76
2022/12/09 07:53:24;;;;;;;;;;;;;;;9.08;68.52;99703.16;4970375;28;19922;-77
2022/12/09 07:56:12;;;;;;;;;;;;;;;9.11;70.58;99689.72;4975770;28;19918;-79
2022/12/09 07:58:56;;;;;;;;;;;;;;;9.38;70.52;99675.63;4992990;28;19918;-79
2022/12/09 08:01:41;;;;;;;;;;;;;;;9.54;70.51;99664.16;4977005;28;20407;-78
2022/12/09 08:04:25;;;;;;;;;;;;;;;9.49;66.80;99651.59;4982219;28;19917;-78
2022/12/09 08:07:10;;;;;;;;;;;;;;;9.56;72.02;99656.47;4993022;28;19917;-79
2022/12/09 08:09:55;;;;;;;;;;;;;;;10.44;72.39;99658.69;4982639;28;19917;-79
2022/12/09 08:12:39;;;;;;;;;;;;;;;11.34;69.19;99658.28;4986219;28;20390;-77
2022/12/09 08:15:23;;;;;;;;;;;;;;;12.28;65.31;99655.78;4984628;28;19918;-79
2022/12/09 08:18:08;;;;;;;;;;;;;;;12.81;63.20;99665.19;4983468;28;19917;-78
2022/12/09 08:20:52;;;;;;;;;;;;;;;12.85;62.39;99679.69;4986844;28;19918;-79
2022/12/09 08:23:37;;;;;;;;;;;;;;;12.25;58.79;99687.25;4996232;28;19922;-80
2022/12/09 08:26:22;;;;;;;;;;;;;;;11.63;61.44;99687.88;4983123;28;19918;-80
2022/12/09 08:29:08;;;;;;;;;;;;;;;11.18;62.41;99690.09;4996362;28;19918;-78
2022/12/09 08:31:53;;;;;;;;;;;;;;;11.25;63.91;99702.00;4996231;28;20410;-77
2022/12/09 08:34:37;;;;;;;;;;;;;;;11.50;64.31;99705.44;4983845;28;19918;-76
2022/12/09 08:37:21;;;;;;;;;;;;;;;11.72;62.63;99706.81;4996569;28;19921;-77
2022/12/09 08:40:06;;;;;;;;;;;;;;;11.84;63.00;99688.50;4996360;28;20367;-77
2022/12/09 08:42:51;;;;;;;;;;;;;;;11.61;62.70;99667.59;4980554;28;19921;-79
2022/12/09 08:45:36;;;;;;;;;;;;;;;12.64;63.48;99644.56;4994505;28;19917;-77
2022/12/09 08:48:20;;;;;;;;;;;;;;;13.03;61.69;99637.25;4995827;28;19917;-77
2022/12/09 08:51:05;;;;;;;;;;;;;;;12.91;59.40;99620.97;4975062;28;19917;-79
2022/12/09 08:53:50;;;;;;;;;;;;;;;12.89;61.10;99623.28;4975700;28;20563;-79
2022/12/09 08:56:35;;;;;;;;;;;;;;;13.11;60.61;99621.78;4978353;28;19918;-79
2022/12/09 08:59:20;;;;;;;;;;;;;;;12.91;56.94;99626.44;4977200;28;19918;-78
2022/12/09 09:02:04;;;;;;;;;;;;;;;12.86;59.05;99611.16;4980120;28;19922;-79
2022/12/09 09:04:49;;;;;;;;;;;;;;;12.96;60.75;99606.25;4989430;28;19918;-78
2022/12/09 09:07:33;;;;;;;;;;;;;;;12.80;58.34;99604.38;4970353;28;19918;-77
2022/12/09 09:10:18;;;;;;;;;;;;;;;13.27;60.24;99593.31;4985511;28;19918;-79
2022/12/09 09:13:02;;;;;;;;;;;;;;;12.88;58.03;99585.44;4970367;28;19922;-79
2022/12/09 09:15:46;;;;;;;;;;;;;;;13.05;59.92;99602.19;4975973;28;19918;-76
2022/12/09 09:18:30;;;;;;;;;;;;;;;12.67;58.33;99583.84;4975898;28;19918;-78
2022/12/09 09:21:16;;;;;;;;;;;;;;;12.97;60.17;99564.19;4966008;28;19918;-77
2022/12/09 09:24:01;;;;;;;;;;;;;;;13.52;58.73;99557.47;4975850;28;19918;-76
2022/12/09 09:26:46;;;;;;;;;;;;;;;13.19;56.39;99580.69;4963420;28;20383;-81
2022/12/09 09:29:31;;;;;;;;;;;;;;;12.74;55.78;99584.00;4982255;28;20311;-78
2022/12/09 09:32:15;;;;;;;;;;;;;;;12.13;56.04;99578.34;4974289;28;19918;-78
2022/12/09 09:34:59;;;;;;;;;;;;;;;11.64;58.82;99586.00;4977048;28;19918;-77
2022/12/09 09:37:44;;;;;;;;;;;;;;;11.20;59.16;99585.22;4984174;28;19918;-78
2022/12/09 09:40:30;;;;;;;;;;;;;;;11.41;60.86;99580.38;4975082;28;19918;-78
2022/12/09 09:43:16;;;;;;;;;;;;;;;11.97;63.01;99580.25;4971803;28;20303;-78
2022/12/09 09:46:03;;;;;;;;;;;;;;;12.68;62.55;99595.53;4985994;28;19918;-78
2022/12/09 09:48:48;;;;;;;;;;;;;;;12.71;59.58;99590.16;4983888;28;19917;-79
2022/12/09 09:51:33;;;;;;;;;;;;;;;12.79;59.04;99583.72;4986873;28;19922;-79
2022/12/09 09:54:18;;;;;;;;;;;;;;;12.04;59.16;99568.75;4983864;28;19939;-80
2022/12/09 09:57:09;;;;;;;;;;;;;;;12.10;61.92;99570.06;4991758;28;19922;-80
2022/12/09 10:00:00;;;;;;;;;;;;;;;11.93;59.81;99568.50;4973412;28;19917;-79
2022/12/09 10:03:03;;;;;;;;;;;;;;;11.84;61.13;99540.63;4979112;28;19922;-79
2022/12/09 10:05:57;;;;;;;;;;;;;;;12.17;60.18;99530.16;4975021;28;19918;-79
2022/12/09 10:08:47;;;;;;;;;;;;;;;11.78;59.79;99547.50;4960688;28;20139;-79
2022/12/09 10:11:43;;;;;;;;;;;;;;;12.30;57.44;99538.97;4980660;28;19922;-78
2022/12/09 10:14:51;;;;;;;;;;;;;;;11.50;60.20;99525.75;4976546;28;19918;-79
2022/12/09 10:17:38;;;;;;;;;;;;;;;11.15;60.34;99507.34;4990026;28;20379;-79
2022/12/09 10:20:27;;;;;;;;;;;;;;;11.71;61.18;99509.16;4986943;28;19917;-78
2022/12/09 10:23:13;;;;;;;;;;;;;;;12.12;60.76;99508.63;4980177;28;19926;-79
2022/12/09 10:26:02;;;;;;;;;;;;;;;12.12;59.26;99502.38;4982564;28;20331;-78
2022/12/09 10:28:49;;;;;;;;;;;;;;;12.32;59.74;99498.53;4982275;28;20319;-78
2022/12/09 10:31:33;;;;;;;;;;;;;;;12.72;59.20;99496.28;4976567;28;20386;-80
2022/12/09 10:34:18;;;;;;;;;;;;;;;12.25;55.87;99501.09;4972969;28;19918;-78
2022/12/09 10:37:02;;;;;;;;;;;;;;;12.08;56.81;99496.06;4980758;28;19922;-78
2022/12/09 10:39:49;;;;;;;;;;;;;;;11.76;56.28;99473.50;4992497;28;19917;-78
2022/12/09 10:45:48;;;;;;;;;;;;;;;10.71;59.52;99445.94;4961834;28;19918;-79
2022/12/09 10:48:36;;;;;;;;;;;;;;;10.57;61.94;99430.00;4974140;28;19922;-79
2022/12/09 10:51:21;;;;;;;;;;;;;;;11.96;64.22;99415.22;4963136;28;19918;-79
2022/12/09 10:54:08;;;;;;;;;;;;;;;13.10;60.84;99399.94;4961294;28;20399;-79
2022/12/09 10:57:11;;;;;;;;;;;;;;;13.77;57.87;99404.91;4965152;28;19926;-79
2022/12/09 11:00:01;;;;;;;;;;;;;;;13.92;55.09;99407.47;4960306;28;19918;-79
2022/12/09 11:02:50;;;;;;;;;;;;;;;13.53;56.49;99404.16;4973591;28;20400;-79
2022/12/09 11:05:34;;;;;;;;;;;;;;;12.72;54.03;99402.75;4973945;28;19918;-79
2022/12/09 11:08:20;;;;;;;;;;;;;;;12.04;56.04;99402.56;4962030;28;19918;-80
2022/12/09 11:11:05;;;;;;;;;;;;;;;11.32;58.15;99404.75;4960914;28;19945;-78
2022/12/09 11:13:49;;;;;;;;;;;;;;;10.86;59.58;99420.72;4977152;28;21000;-79
2022/12/09 11:16:34;;;;;;;;;;;;;;;10.64;60.46;99429.41;4978180;28;19917;-82
2022/12/09 11:19:35;;;;;;;;;;;;;;;10.62;60.56;99416.16;4977795;28;19917;-78
2022/12/09 11:22:21;;;;;;;;;;;;;;;10.29;62.63;99405.56;4986367;28;19922;-82
2022/12/09 11:25:14;;;;;;;;;;;;;;;10.15;62.91;99369.03;4995478;28;19918;-80
2022/12/09 11:28:01;;;;;;;;;;;;;;;10.02;63.90;99338.38;4992378;28;19918;-80
2022/12/09 11:30:49;;;;;;;;;;;;;;;9.89;64.83;99315.13;4969091;28;20831;-79
2022/12/09 11:33:38;;;;;;;;;;;;;;;9.98;63.96;99310.34;4976557;28;19918;-80
2022/12/09 11:36:26;;;;;;;;;;;;;;;9.86;63.57;99308.44;4983015;28;19922;-77
2022/12/09 11:39:23;;;;;;;;;;;;;;;9.71;64.12;99324.66;4976937;28;19917;-79
2022/12/09 11:42:17;;;;;;;;;;;;;;;9.66;64.33;99331.13;4969052;28;20307;-77
2022/12/09 11:45:05;;;;;;;;;;;;;;;9.62;64.91;99329.44;4969095;28;19917;-78
2022/12/09 11:47:51;;;;;;;;;;;;;;;9.47;64.79;99327.44;4979638;28;19917;-79
2022/12/09 11:50:41;;;;;;;;;;;;;;;9.42;65.25;99326.53;4972249;28;19918;-79
2022/12/09 11:53:25;;;;;;;;;;;;;;;9.45;64.90;99319.63;4986407;28;19918;-79
2022/12/09 11:56:21;;;;;;;;;;;;;;;9.44;65.77;99310.72;4981149;28;19917;-81
2022/12/09 11:59:09;;;;;;;;;;;;;;;9.49;66.57;99300.75;4984382;28;19917;-81
2022/12/09 12:02:00;;;;;;;;;;;;;;;9.40;66.26;99298.16;4988170;28;19929;-80
2022/12/09 12:04:54;;;;;;;;;;;;;;;9.42;66.83;99294.00;4979233;28;19918;-80
2022/12/09 12:07:40;;;;;;;;;;;;;;;9.38;67.36;99293.09;4974852;28;20306;-79
2022/12/09 12:10:27;;;;;;;;;;;;;;;9.37;67.32;99286.09;4981866;28;19918;-80
2022/12/09 12:13:19;;;;;;;;;;;;;;;9.52;68.42;99287.28;4985902;28;19922;-78
2022/12/09 12:16:07;;;;;;;;;;;;;;;9.91;68.07;99303.91;4969499;28;19918;-78
2022/12/09 12:19:02;;;;;;;;;;;;;;;10.29;68.51;99315.91;4984644;28;19918;-81
2022/12/09 12:21:52;;;;;;;;;;;;;;;10.93;67.65;99339.28;4983315;28;19918;-79
2022/12/09 12:24:53;;;;;;;;;;;;;;;11.00;64.34;99344.13;4973076;28;19918;-78
2022/12/09 12:27:47;;;;;;;;;;;;;;;11.02;64.48;99344.56;4972458;28;19918;-78
2022/12/09 12:30:48;;;;;;;;;;;;;;;11.22;64.72;99334.56;4984393;28;19918;-79
2022/12/09 12:33:49;;;;;;;;;;;;;;;11.11;62.78;99324.19;4972754;28;20387;-79
2022/12/09 12:36:51;;;;;;;;;;;;;;;10.58;62.69;99300.31;4970401;28;19918;-77
2022/12/09 12:39:42;;;;;;;;;;;;;;;10.20;63.13;99298.97;4962080;28;19918;-80
2022/12/09 12:42:33;;;;;;;;;;;;;;;9.97;64.33;99281.59;4979624;28;20302;-80
2022/12/09 12:48:31;;;;;;;;;;;;;;;9.75;65.77;99282.16;4980849;28;19922;-77
2022/12/09 12:51:24;;;;;;;;;;;;;;;9.64;66.05;99284.56;4993244;28;19917;-79
2022/12/09 12:54:20;;;;;;;;;;;;;;;9.71;65.67;99283.97;4976616;28;19918;-77
2022/12/09 12:57:17;;;;;;;;;;;;;;;10.13;68.39;99301.44;4983677;28;19925;-80
2022/12/09 13:00:09;;;;;;;;;;;;;;;10.04;65.38;99289.16;4962047;28;19918;-78
2022/12/09 13:03:12;;;;;;;;;;;;;;;10.12;64.82;99282.78;4993994;28;20008;-77
2022/12/09 13:05:57;;;;;;;;;;;;;;;10.03;66.35;99280.22;4988378;28;20310;-78
2022/12/09 13:08:45;;;;;;;;;;;;;;;10.20;65.77;99268.28;4984764;28;19917;-78
2022/12/09 13:11:45;;;;;;;;;;;;;;;9.89;65.11;99266.25;4977611;28;19922;-78
2022/12/09 13:14:32;;;;;;;;;;;;;;;9.76;65.72;99259.28;4995746;28;19918;-79
2022/12/09 13:17:19;;;;;;;;;;;;;;;9.56;66.30;99238.53;4979890;28;20710;-81
2022/12/09 13:20:04;;;;;;;;;;;;;;;10.93;64.99;99257.69;4994455;28;19918;-78
2022/12/09 13:22:56;;;;;;;;;;;;;;;10.33;65.07;99247.28;4973782;28;20386;-79
2022/12/09 13:25:55;;;;;;;;;;;;;;;10.06;65.36;99240.72;4980489;28;19918;-78
2022/12/09 13:29:04;;;;;;;;;;;;;;;9.97;66.21;99232.72;4974070;28;19918;-80
2022/12/09 13:31:58;;;;;;;;;;;;;;;10.48;66.78;99235.63;4974166;28;19918;-77
2022/12/09 13:34:48;;;;;;;;;;;;;;;10.24;65.48;99242.81;4987593;28;20313;-80
2022/12/09 13:37:53;;;;;;;;;;;;;;;10.47;64.79;99244.91;4997082;28;19922;-80
2022/12/09 13:40:38;;;;;;;;;;;;;;;10.33;65.93;99258.13;4992278;28;19918;-79
2022/12/09 13:43:27;;;;;;;;;;;;;;;10.11;66.34;99265.69;4970765;28;19926;-79
2022/12/09 13:46:19;;;;;;;;;;;;;;;9.84;66.86;99277.38;4975460;28;19917;-80
2022/12/09 13:49:18;;;;;;;;;;;;;;;10.10;68.79;99236.19;4978104;28;19918;-78
2022/12/09 13:52:03;;;;;;;;;;;;;;;9.85;66.41;99224.66;4982405;28;19918;-79
2022/12/09 13:54:48;;;;;;;;;;;;;;;9.76;67.50;99232.94;4983619;28;19918;-79
2022/12/09 13:57:43;;;;;;;;;;;;;;;9.86;66.71;99223.50;4983872;28;19922;-78
2022/12/09 14:00:28;;;;;;;;;;;;;;;9.70;67.58;99231.59;4999691;28;19918;-78
2022/12/09 14:03:32;;;;;;;;;;;;;;;10.14;71.30;99237.06;4988831;28;20348;-78
2022/12/09 14:06:23;;;;;;;;;;;;;;;10.13;69.23;99230.03;4988392;28;19922;-79
2022/12/09 14:09:16;;;;;;;;;;;;;;;10.40;66.49;99239.31;4999998;28;19918;-78
2022/12/09 14:12:05;;;;;;;;;;;;;;;10.33;67.08;99260.84;4999486;28;20306;-77
2022/12/09 14:14:51;;;;;;;;;;;;;;;10.65;68.06;99265.97;4984314;28;20299;-78
2022/12/09 14:17:36;;;;;;;;;;;;;;;11.09;67.63;99266.63;4997525;28;19918;-78
2022/12/09 14:20:22;;;;;;;;;;;;;;;11.28;64.85;99252.28;4995536;28;19918;-80
2022/12/09 14:23:06;;;;;;;;;;;;;;;12.12;69.58;99251.69;4989003;28;19922;-78
2022/12/09 14:25:55;;;;;;;;;;;;;;;11.95;62.85;99250.97;4998339;28;20375;-78
2022/12/09 14:28:49;;;;;;;;;;;;;;;12.07;61.06;99265.59;4996162;28;19917;-79
2022/12/09 14:31:45;;;;;;;;;;;;;;;12.30;65.21;99264.47;4987438;28;19918;-79
2022/12/09 14:34:29;;;;;;;;;;;;;;;12.24;62.82;99256.97;4995496;28;19917;-78
2022/12/09 14:37:17;;;;;;;;;;;;;;;12.00;60.92;99250.69;4994194;28;19922;-77
2022/12/09 14:40:13;;;;;;;;;;;;;;;12.01;63.55;99259.66;4994393;28;19918;-77
2022/12/09 14:43:10;;;;;;;;;;;;;;;12.51;62.16;99264.06;4994099;28;19922;-77